Kezdőlap
METAR-TAF:

METAR-TAF

Repülőterek :

Guilin, Kína

földrajzi szélesség: 25-20N, földrajzi hosszúság: 110-18E, magasság: 166 m

Jelenlegi meteorológiai megfigyelések

A jelentés 1 órával és 1 perccel ezelõtt készült, 20:00 UTC
Északi szél 2 kt
Hőmérséklet 26°C
Páratartalom 94%
Légköri nyomás 1006 hPa
Látótávolság 10 km, vagy több
Kevés felhő 4000 lábon
Szórványos felhőzet 6600 lábon

METAR: ZGKL 202000Z 35001MPS 9999 FEW040 SCT066 26/25 Q1006 NOSIG

Idő: 05:01 (21:01 UTC)

Előrejelzés

A jelentés 3 órával és 43 perccel ezelõtt készült, 17:18 UTC
Az előrejelzés 20-én 18 óra UTC és 21-én 18 óra UTC között érvényes
Déli szél 6 kt
Látótávolság: 6000 m
Szórványos felhőzet 4000 lábon
21-én 06 óra UTC és 21-én 12 óra UTC között ideiglenes
Kevés felhő 3000 lábon, Cumulonimbus.
Szórványos felhőzet 3300 lábon

TAF: ZGKL 201718Z 2018/2118 18003MPS 6000 SCT040 TX36/2107Z TN26/2022Z TEMPO 2106/2112 FEW030CB SCT033

Meteorológiai megfigyelések és előrejelzések több, mint 4000 repülőtéren (METAR és TAF jelentéseket).

A térképen piros és sárga pontok jelzik az elérhető meteorológiai állomásokat.

Mozgassa az egeret a pont fölött, hogy megjelenjen az állomás neve.

Azután kattintson az időjárási megfigyelések és előrejelzések megtekintéséhez.

A térkép megváltoztatása: kattintson a fekete keresztel jelölt zöld gombra ráközelítéshez, a vonallal jelölt zöld gombra távolításhoz, vagy a zöld nyilakra a szomszédos térképek eléréséhez.


METAR-TAF: